Pooler, Georgia
Current Conditions -  °F | °C
As of 7:53 PM on Wednesday 22 Oct 2014 (Local Time) from KSAV Reporting Station
Clear Clear  
Wind Chill: 58°   Ceiling: Unl
Heat Index: 58°   Visibility: 10mi
Dew Point: 49°   Wind: 0mph
Humidity: 72%   Direction: NA
Pressure: 30.05"   Gusts: NA
Location:  32.12°N, 81.25°W
Report Text: KSAV 222353Z 00000KT 10SM CLR 14/09 A3005 RMK AO2 SLPNO T01440094 10228 20144 53014
Loading
Personal Weather Stations






























Interactive Weather Map
Tropical Storm Tracking
New forecast layout! Learn more

10-Day Weather Forecast

Advertisements
Track Severe Weather on mobile